sensor_id;sensor_type;location;lat;lon;timestamp;temperature;humidity
74513;DHT22;62992;52.052;8.550;2023-02-28T00:00:12;-0.70;99.90
74513;DHT22;62992;52.052;8.550;2023-02-28T00:02:57;-0.80;99.90
74513;DHT22;62992;52.052;8.550;2023-02-28T00:05:40;-0.80;99.90
74513;DHT22;62992;52.052;8.550;2023-02-28T00:08:25;-0.70;99.90
74513;DHT22;62992;52.052;8.550;2023-02-28T00:11:13;-0.80;99.90
74513;DHT22;62992;52.052;8.550;2023-02-28T00:13:58;-0.70;99.90
74513;DHT22;62992;52.052;8.550;2023-02-28T00:16:42;-0.60;99.90
74513;DHT22;62992;52.052;8.550;2023-02-28T00:19:26;-0.60;99.90
74513;DHT22;62992;52.052;8.550;2023-02-28T00:22:10;-0.60;99.90
74513;DHT22;62992;52.052;8.550;2023-02-28T00:24:54;-0.60;99.90
74513;DHT22;62992;52.052;8.550;2023-02-28T00:27:39;-0.60;99.90
74513;DHT22;62992;52.052;8.550;2023-02-28T00:30:23;-0.60;99.90
74513;DHT22;62992;52.052;8.550;2023-02-28T00:33:08;-0.60;99.90
74513;DHT22;62992;52.052;8.550;2023-02-28T00:36:00;-0.60;99.90
74513;DHT22;62992;52.052;8.550;2023-02-28T00:38:44;-0.60;99.90
74513;DHT22;62992;52.052;8.550;2023-02-28T00:41:28;-0.70;99.90
74513;DHT22;62992;52.052;8.550;2023-02-28T00:44:12;-0.70;99.90
74513;DHT22;62992;52.052;8.550;2023-02-28T00:46:57;-0.70;99.90
74513;DHT22;62992;52.052;8.550;2023-02-28T00:49:41;-0.70;99.90
74513;DHT22;62992;52.052;8.550;2023-02-28T00:52:26;-0.70;99.90
74513;DHT22;62992;52.052;8.550;2023-02-28T00:55:10;-0.70;99.90
74513;DHT22;62992;52.052;8.550;2023-02-28T00:57:54;-0.80;99.90
74513;DHT22;62992;52.052;8.550;2023-02-28T01:00:38;-0.80;99.90
74513;DHT22;62992;52.052;8.550;2023-02-28T01:03:22;-0.90;99.90
74513;DHT22;62992;52.052;8.550;2023-02-28T01:06:07;-0.80;99.90
74513;DHT22;62992;52.052;8.550;2023-02-28T01:08:51;-0.80;99.90
74513;DHT22;62992;52.052;8.550;2023-02-28T01:11:35;-0.80;99.90
74513;DHT22;62992;52.052;8.550;2023-02-28T01:14:20;-1.00;99.90
74513;DHT22;62992;52.052;8.550;2023-02-28T01:17:04;-1.00;99.90
74513;DHT22;62992;52.052;8.550;2023-02-28T01:19:48;-1.00;99.90
74513;DHT22;62992;52.052;8.550;2023-02-28T01:22:34;-1.00;99.90
74513;DHT22;62992;52.052;8.550;2023-02-28T01:25:19;-1.00;99.90
74513;DHT22;62992;52.052;8.550;2023-02-28T01:28:03;-1.00;99.90
74513;DHT22;62992;52.052;8.550;2023-02-28T01:30:48;-1.10;99.90
74513;DHT22;62992;52.052;8.550;2023-02-28T01:33:32;-1.10;99.90
74513;DHT22;62992;52.052;8.550;2023-02-28T01:36:20;-1.20;99.90
74513;DHT22;62992;52.052;8.550;2023-02-28T01:39:05;-1.30;99.90
74513;DHT22;62992;52.052;8.550;2023-02-28T01:41:49;-1.20;99.90
74513;DHT22;62992;52.052;8.550;2023-02-28T01:47:41;-1.30;99.90
74513;DHT22;62992;52.052;8.550;2023-02-28T01:50:29;-1.30;99.90
74513;DHT22;62992;52.052;8.550;2023-02-28T01:53:19;-1.30;99.90
74513;DHT22;62992;52.052;8.550;2023-02-28T01:56:07;-1.30;99.90
74513;DHT22;62992;52.052;8.550;2023-02-28T01:58:53;-1.30;99.90
74513;DHT22;62992;52.052;8.550;2023-02-28T02:01:37;-1.40;99.90
74513;DHT22;62992;52.052;8.550;2023-02-28T02:04:23;-1.40;99.90
74513;DHT22;62992;52.052;8.550;2023-02-28T02:07:10;-1.40;99.90
74513;DHT22;62992;52.052;8.550;2023-02-28T02:10:41;-1.50;99.90
74513;DHT22;62992;52.052;8.550;2023-02-28T02:16:56;-1.40;99.90
74513;DHT22;62992;52.052;8.550;2023-02-28T02:29:41;-1.40;99.90
74513;DHT22;62992;52.052;8.550;2023-02-28T02:35:52;-1.40;99.90
74513;DHT22;62992;52.052;8.550;2023-02-28T02:41:52;-1.40;99.90
74513;DHT22;62992;52.052;8.550;2023-02-28T02:44:45;-1.50;99.90
74513;DHT22;62992;52.052;8.550;2023-02-28T02:47:31;-1.50;99.90
74513;DHT22;62992;52.052;8.550;2023-02-28T02:50:22;-1.50;99.90
74513;DHT22;62992;52.052;8.550;2023-02-28T02:53:08;-1.60;99.90
74513;DHT22;62992;52.052;8.550;2023-02-28T02:55:53;-1.70;99.90
74513;DHT22;62992;52.052;8.550;2023-02-28T02:58:41;-1.70;99.90
74513;DHT22;62992;52.052;8.550;2023-02-28T03:01:27;-1.70;99.90
74513;DHT22;62992;52.052;8.550;2023-02-28T03:04:16;-1.70;99.90
74513;DHT22;62992;52.052;8.550;2023-02-28T03:07:02;-1.70;99.90
74513;DHT22;62992;52.052;8.550;2023-02-28T03:09:56;-1.70;99.90
74513;DHT22;62992;52.052;8.550;2023-02-28T03:12:51;-1.90;99.90
74513;DHT22;62992;52.052;8.550;2023-02-28T03:16:00;-1.80;99.90
74513;DHT22;62992;52.052;8.550;2023-02-28T03:22:14;-1.90;99.90
74513;DHT22;62992;52.052;8.550;2023-02-28T03:25:18;-1.90;99.90
74513;DHT22;62992;52.052;8.550;2023-02-28T03:28:18;-1.90;99.90
74513;DHT22;62992;52.052;8.550;2023-02-28T03:31:13;-1.90;99.90
74513;DHT22;62992;52.052;8.550;2023-02-28T03:36:57;-2.00;99.90
74513;DHT22;62992;52.052;8.550;2023-02-28T03:39:48;-2.00;99.90
74513;DHT22;62992;52.052;8.550;2023-02-28T03:42:36;-2.00;99.90
74513;DHT22;62992;52.052;8.550;2023-02-28T03:45:23;-2.00;99.90
74513;DHT22;62992;52.052;8.550;2023-02-28T03:48:56;-2.00;99.90
74513;DHT22;62992;52.052;8.550;2023-02-28T03:51:22;-2.00;99.90
74513;DHT22;62992;52.052;8.550;2023-02-28T03:54:10;-2.00;99.90
74513;DHT22;62992;52.052;8.550;2023-02-28T03:57:24;-2.00;99.90
74513;DHT22;62992;52.052;8.550;2023-02-28T04:00:21;-2.10;99.90
74513;DHT22;62992;52.052;8.550;2023-02-28T04:03:05;-2.20;99.90
74513;DHT22;62992;52.052;8.550;2023-02-28T04:05:52;-2.20;99.90
74513;DHT22;62992;52.052;8.550;2023-02-28T04:08:36;-2.20;99.90
74513;DHT22;62992;52.052;8.550;2023-02-28T04:14:16;-2.30;99.90
74513;DHT22;62992;52.052;8.550;2023-02-28T04:17:00;-2.30;99.90
74513;DHT22;62992;52.052;8.550;2023-02-28T04:19:44;-2.40;99.90
74513;DHT22;62992;52.052;8.550;2023-02-28T04:22:28;-2.30;99.90
74513;DHT22;62992;52.052;8.550;2023-02-28T04:25:12;-2.40;99.90
74513;DHT22;62992;52.052;8.550;2023-02-28T04:27:56;-2.40;99.90
74513;DHT22;62992;52.052;8.550;2023-02-28T04:30:40;-2.40;99.90
74513;DHT22;62992;52.052;8.550;2023-02-28T04:33:24;-2.40;99.90
74513;DHT22;62992;52.052;8.550;2023-02-28T04:36:08;-2.40;99.90
74513;DHT22;62992;52.052;8.550;2023-02-28T04:38:52;-2.40;99.90
74513;DHT22;62992;52.052;8.550;2023-02-28T04:41:37;-2.50;99.90
74513;DHT22;62992;52.052;8.550;2023-02-28T04:44:22;-2.40;99.90
74513;DHT22;62992;52.052;8.550;2023-02-28T04:47:07;-2.60;99.90
74513;DHT22;62992;52.052;8.550;2023-02-28T04:49:51;-2.60;99.90
74513;DHT22;62992;52.052;8.550;2023-02-28T04:52:35;-2.60;99.90
74513;DHT22;62992;52.052;8.550;2023-02-28T04:55:19;-2.50;99.90
74513;DHT22;62992;52.052;8.550;2023-02-28T04:58:03;-2.50;99.90
74513;DHT22;62992;52.052;8.550;2023-02-28T05:00:48;-2.50;99.90
74513;DHT22;62992;52.052;8.550;2023-02-28T05:03:32;-2.50;99.90
74513;DHT22;62992;52.052;8.550;2023-02-28T05:06:17;-2.60;99.90
74513;DHT22;62992;52.052;8.550;2023-02-28T05:09:02;-2.60;99.90
74513;DHT22;62992;52.052;8.550;2023-02-28T05:11:46;-2.60;99.90
74513;DHT22;62992;52.052;8.550;2023-02-28T05:14:30;-2.60;99.90
74513;DHT22;62992;52.052;8.550;2023-02-28T05:17:14;-2.60;99.90
74513;DHT22;62992;52.052;8.550;2023-02-28T05:19:58;-2.60;99.90
74513;DHT22;62992;52.052;8.550;2023-02-28T05:22:42;-2.60;99.90
74513;DHT22;62992;52.052;8.550;2023-02-28T05:25:27;-2.70;99.90
74513;DHT22;62992;52.052;8.550;2023-02-28T05:28:11;-2.70;99.90
74513;DHT22;62992;52.052;8.550;2023-02-28T05:30:55;-2.70;99.90
74513;DHT22;62992;52.052;8.550;2023-02-28T05:33:39;-2.70;99.90
74513;DHT22;62992;52.052;8.550;2023-02-28T05:36:23;-2.80;99.90
74513;DHT22;62992;52.052;8.550;2023-02-28T05:39:08;-2.80;99.90
74513;DHT22;62992;52.052;8.550;2023-02-28T05:41:56;-2.80;99.90
74513;DHT22;62992;52.052;8.550;2023-02-28T05:44:40;-2.90;99.90
74513;DHT22;62992;52.052;8.550;2023-02-28T05:47:26;-2.80;99.90
74513;DHT22;62992;52.052;8.550;2023-02-28T05:50:10;-2.90;99.90
74513;DHT22;62992;52.052;8.550;2023-02-28T05:52:54;-2.80;99.90
74513;DHT22;62992;52.052;8.550;2023-02-28T05:55:38;-2.90;99.90
74513;DHT22;62992;52.052;8.550;2023-02-28T05:58:23;-2.80;99.90
74513;DHT22;62992;52.052;8.550;2023-02-28T06:01:30;-2.80;99.90
74513;DHT22;62992;52.052;8.550;2023-02-28T06:04:17;-2.80;99.90
74513;DHT22;62992;52.052;8.550;2023-02-28T06:07:03;-2.90;99.90
74513;DHT22;62992;52.052;8.550;2023-02-28T06:09:47;-2.80;99.90
74513;DHT22;62992;52.052;8.550;2023-02-28T06:12:31;-2.80;99.90
74513;DHT22;62992;52.052;8.550;2023-02-28T06:15:16;-2.80;99.90
74513;DHT22;62992;52.052;8.550;2023-02-28T06:18:00;-2.90;99.90
74513;DHT22;62992;52.052;8.550;2023-02-28T06:20:44;-2.90;99.90
74513;DHT22;62992;52.052;8.550;2023-02-28T06:23:36;-2.80;99.90
74513;DHT22;62992;52.052;8.550;2023-02-28T06:26:21;-2.80;99.90
74513;DHT22;62992;52.052;8.550;2023-02-28T06:29:05;-2.80;99.90
74513;DHT22;62992;52.052;8.550;2023-02-28T06:31:49;-2.80;99.90
74513;DHT22;62992;52.052;8.550;2023-02-28T06:34:33;-2.70;99.90
74513;DHT22;62992;52.052;8.550;2023-02-28T06:37:18;-2.80;99.90
74513;DHT22;62992;52.052;8.550;2023-02-28T06:40:02;-2.80;99.90
74513;DHT22;62992;52.052;8.550;2023-02-28T06:42:46;-2.80;99.90
74513;DHT22;62992;52.052;8.550;2023-02-28T06:45:30;-2.80;99.90
74513;DHT22;62992;52.052;8.550;2023-02-28T06:48:15;-2.70;99.90
74513;DHT22;62992;52.052;8.550;2023-02-28T06:51:10;-2.70;99.90
74513;DHT22;62992;52.052;8.550;2023-02-28T06:53:55;-2.70;99.90
74513;DHT22;62992;52.052;8.550;2023-02-28T06:56:40;-2.60;99.90
74513;DHT22;62992;52.052;8.550;2023-02-28T06:59:24;-2.60;99.90
74513;DHT22;62992;52.052;8.550;2023-02-28T07:02:08;-2.50;99.90
74513;DHT22;62992;52.052;8.550;2023-02-28T07:04:52;-2.50;99.90
74513;DHT22;62992;52.052;8.550;2023-02-28T07:07:36;-2.50;99.90
74513;DHT22;62992;52.052;8.550;2023-02-28T07:10:22;-2.50;99.90
74513;DHT22;62992;52.052;8.550;2023-02-28T07:13:07;-2.50;99.90
74513;DHT22;62992;52.052;8.550;2023-02-28T07:15:56;-2.40;99.90
74513;DHT22;62992;52.052;8.550;2023-02-28T07:18:40;-2.40;99.90
74513;DHT22;62992;52.052;8.550;2023-02-28T07:21:25;-2.30;99.90
74513;DHT22;62992;52.052;8.550;2023-02-28T07:24:09;-2.20;99.90
74513;DHT22;62992;52.052;8.550;2023-02-28T07:26:54;-2.20;99.90
74513;DHT22;62992;52.052;8.550;2023-02-28T07:29:38;-2.10;99.90
74513;DHT22;62992;52.052;8.550;2023-02-28T07:32:23;-2.00;99.90
74513;DHT22;62992;52.052;8.550;2023-02-28T07:35:07;-1.90;99.90
74513;DHT22;62992;52.052;8.550;2023-02-28T07:37:51;-1.60;99.90
74513;DHT22;62992;52.052;8.550;2023-02-28T07:40:35;-1.10;99.90
74513;DHT22;62992;52.052;8.550;2023-02-28T07:43:20;1.20;99.90
74513;DHT22;62992;52.052;8.550;2023-02-28T07:46:06;5.10;99.90
74513;DHT22;62992;52.052;8.550;2023-02-28T07:48:50;7.80;99.90
74513;DHT22;62992;52.052;8.550;2023-02-28T07:51:34;9.70;98.80
74513;DHT22;62992;52.052;8.550;2023-02-28T07:54:18;10.70;95.60
74513;DHT22;62992;52.052;8.550;2023-02-28T07:57:02;11.00;93.80
74513;DHT22;62992;52.052;8.550;2023-02-28T07:59:46;10.30;93.90
74513;DHT22;62992;52.052;8.550;2023-02-28T08:02:30;9.20;95.60
74513;DHT22;62992;52.052;8.550;2023-02-28T08:05:15;8.70;97.40
74513;DHT22;62992;52.052;8.550;2023-02-28T08:07:59;10.60;95.60
74513;DHT22;62992;52.052;8.550;2023-02-28T08:10:43;12.30;92.20
74513;DHT22;62992;52.052;8.550;2023-02-28T08:13:29;13.10;90.30
74513;DHT22;62992;52.052;8.550;2023-02-28T08:16:14;13.30;88.50
74513;DHT22;62992;52.052;8.550;2023-02-28T08:19:01;13.80;85.60
74513;DHT22;62992;52.052;8.550;2023-02-28T08:21:45;13.80;83.50
74513;DHT22;62992;52.052;8.550;2023-02-28T08:24:29;14.10;84.10
74513;DHT22;62992;52.052;8.550;2023-02-28T08:27:13;13.20;83.80
74513;DHT22;62992;52.052;8.550;2023-02-28T08:29:57;13.90;83.50
74513;DHT22;62992;52.052;8.550;2023-02-28T08:32:41;14.30;82.00
74513;DHT22;62992;52.052;8.550;2023-02-28T08:35:25;13.80;82.80
74513;DHT22;62992;52.052;8.550;2023-02-28T08:38:09;12.10;86.60
74513;DHT22;62992;52.052;8.550;2023-02-28T08:41:01;11.90;90.00
74513;DHT22;62992;52.052;8.550;2023-02-28T08:43:46;12.20;87.80
74513;DHT22;62992;52.052;8.550;2023-02-28T08:46:30;12.50;87.50
74513;DHT22;62992;52.052;8.550;2023-02-28T08:49:14;13.30;85.40
74513;DHT22;62992;52.052;8.550;2023-02-28T08:51:58;12.90;84.50
74513;DHT22;62992;52.052;8.550;2023-02-28T08:54:42;11.20;90.20
74513;DHT22;62992;52.052;8.550;2023-02-28T08:57:26;10.60;89.60
74513;DHT22;62992;52.052;8.550;2023-02-28T09:00:12;10.20;91.80
74513;DHT22;62992;52.052;8.550;2023-02-28T09:02:57;9.70;91.80
74513;DHT22;62992;52.052;8.550;2023-02-28T09:05:41;9.40;93.90
74513;DHT22;62992;52.052;8.550;2023-02-28T09:08:28;9.80;93.40
74513;DHT22;62992;52.052;8.550;2023-02-28T09:11:13;8.80;94.70
74513;DHT22;62992;52.052;8.550;2023-02-28T09:13:58;10.30;91.70
74513;DHT22;62992;52.052;8.550;2023-02-28T09:16:44;11.50;90.10
74513;DHT22;62992;52.052;8.550;2023-02-28T09:19:28;9.80;91.70
74513;DHT22;62992;52.052;8.550;2023-02-28T09:22:11;10.10;91.60
74513;DHT22;62992;52.052;8.550;2023-02-28T09:24:55;10.00;91.00
74513;DHT22;62992;52.052;8.550;2023-02-28T09:27:39;9.20;92.30
74513;DHT22;62992;52.052;8.550;2023-02-28T09:30:23;10.50;90.70
74513;DHT22;62992;52.052;8.550;2023-02-28T09:33:08;10.80;89.60
74513;DHT22;62992;52.052;8.550;2023-02-28T09:35:59;10.20;90.40
74513;DHT22;62992;52.052;8.550;2023-02-28T09:38:44;9.80;91.10
74513;DHT22;62992;52.052;8.550;2023-02-28T09:41:39;9.50;90.40
74513;DHT22;62992;52.052;8.550;2023-02-28T09:44:43;7.90;91.60
74513;DHT22;62992;52.052;8.550;2023-02-28T09:47:41;5.70;96.00
74513;DHT22;62992;52.052;8.550;2023-02-28T09:50:35;4.90;98.30
74513;DHT22;62992;52.052;8.550;2023-02-28T09:53:29;4.80;99.20
74513;DHT22;62992;52.052;8.550;2023-02-28T09:56:28;6.20;97.70
74513;DHT22;62992;52.052;8.550;2023-02-28T10:05:37;8.40;92.00
74513;DHT22;62992;52.052;8.550;2023-02-28T10:08:26;8.70;91.30
74513;DHT22;62992;52.052;8.550;2023-02-28T10:11:16;8.60;90.60
74513;DHT22;62992;52.052;8.550;2023-02-28T10:14:15;8.70;90.30
74513;DHT22;62992;52.052;8.550;2023-02-28T10:17:10;9.70;90.10
74513;DHT22;62992;52.052;8.550;2023-02-28T10:23:28;9.40;88.80
74513;DHT22;62992;52.052;8.550;2023-02-28T10:26:14;7.90;91.30
74513;DHT22;62992;52.052;8.550;2023-02-28T10:29:02;8.60;90.30
74513;DHT22;62992;52.052;8.550;2023-02-28T10:31:47;7.00;92.10
74513;DHT22;62992;52.052;8.550;2023-02-28T10:34:31;7.50;92.60
74513;DHT22;62992;52.052;8.550;2023-02-28T10:37:15;7.70;90.40
74513;DHT22;62992;52.052;8.550;2023-02-28T10:39:59;7.30;92.50
74513;DHT22;62992;52.052;8.550;2023-02-28T10:46:03;7.90;91.50
74513;DHT22;62992;52.052;8.550;2023-02-28T10:49:01;8.70;91.10
74513;DHT22;62992;52.052;8.550;2023-02-28T10:51:45;9.30;89.90
74513;DHT22;62992;52.052;8.550;2023-02-28T10:54:36;9.40;89.80
74513;DHT22;62992;52.052;8.550;2023-02-28T10:57:23;8.50;90.20
74513;DHT22;62992;52.052;8.550;2023-02-28T11:00:23;9.10;89.90
74513;DHT22;62992;52.052;8.550;2023-02-28T11:06:15;6.40;92.90
74513;DHT22;62992;52.052;8.550;2023-02-28T11:09:03;5.30;94.20
74513;DHT22;62992;52.052;8.550;2023-02-28T11:11:49;5.30;95.90
74513;DHT22;62992;52.052;8.550;2023-02-28T11:14:40;7.10;93.40
74513;DHT22;62992;52.052;8.550;2023-02-28T11:17:31;8.20;92.20
74513;DHT22;62992;52.052;8.550;2023-02-28T11:20:21;8.10;91.60
74513;DHT22;62992;52.052;8.550;2023-02-28T11:23:11;8.30;90.40
74513;DHT22;62992;52.052;8.550;2023-02-28T11:26:00;8.80;90.10
74513;DHT22;62992;52.052;8.550;2023-02-28T11:28:45;8.90;89.20
74513;DHT22;62992;52.052;8.550;2023-02-28T11:31:29;8.30;88.50
74513;DHT22;62992;52.052;8.550;2023-02-28T11:34:23;8.10;91.10
74513;DHT22;62992;52.052;8.550;2023-02-28T11:37:15;8.40;90.00
74513;DHT22;62992;52.052;8.550;2023-02-28T11:40:01;8.10;91.20
74513;DHT22;62992;52.052;8.550;2023-02-28T11:42:57;8.10;91.00
74513;DHT22;62992;52.052;8.550;2023-02-28T11:45:49;7.70;91.00
74513;DHT22;62992;52.052;8.550;2023-02-28T11:48:48;6.90;91.50
74513;DHT22;62992;52.052;8.550;2023-02-28T11:55:13;7.50;92.40
74513;DHT22;62992;52.052;8.550;2023-02-28T12:20:33;6.60;93.00
74513;DHT22;62992;52.052;8.550;2023-02-28T12:26:43;6.50;92.80
74513;DHT22;62992;52.052;8.550;2023-02-28T12:29:43;6.40;93.20
74513;DHT22;62992;52.052;8.550;2023-02-28T12:32:39;6.40;93.70
74513;DHT22;62992;52.052;8.550;2023-02-28T12:35:32;6.10;93.70
74513;DHT22;62992;52.052;8.550;2023-02-28T12:38:25;6.00;93.60
74513;DHT22;62992;52.052;8.550;2023-02-28T12:44:02;6.40;94.00
74513;DHT22;62992;52.052;8.550;2023-02-28T12:46:52;6.10;93.80
74513;DHT22;62992;52.052;8.550;2023-02-28T12:52:59;5.70;94.00
74513;DHT22;62992;52.052;8.550;2023-02-28T12:56:07;5.70;94.10
74513;DHT22;62992;52.052;8.550;2023-02-28T12:59:16;5.80;94.00
74513;DHT22;62992;52.052;8.550;2023-02-28T13:11:50;5.60;94.60
74513;DHT22;62992;52.052;8.550;2023-02-28T13:14:38;5.60;94.60
74513;DHT22;62992;52.052;8.550;2023-02-28T13:17:24;5.60;95.00
74513;DHT22;62992;52.052;8.550;2023-02-28T13:20:29;5.60;95.00
74513;DHT22;62992;52.052;8.550;2023-02-28T13:23:38;5.50;94.90
74513;DHT22;62992;52.052;8.550;2023-02-28T13:29:39;5.50;95.30
74513;DHT22;62992;52.052;8.550;2023-02-28T13:38:12;5.20;95.20
74513;DHT22;62992;52.052;8.550;2023-02-28T13:44:24;5.20;95.50
74513;DHT22;62992;52.052;8.550;2023-02-28T13:47:21;5.00;95.00
74513;DHT22;62992;52.052;8.550;2023-02-28T13:53:50;5.20;95.90
74513;DHT22;62992;52.052;8.550;2023-02-28T14:06:36;5.10;96.20
74513;DHT22;62992;52.052;8.550;2023-02-28T14:09:30;5.20;96.40
74513;DHT22;62992;52.052;8.550;2023-02-28T14:15:41;5.10;96.80
74513;DHT22;62992;52.052;8.550;2023-02-28T14:18:28;5.20;96.80
74513;DHT22;62992;52.052;8.550;2023-02-28T14:21:21;5.20;96.40
74513;DHT22;62992;52.052;8.550;2023-02-28T14:27:24;5.20;96.70
74513;DHT22;62992;52.052;8.550;2023-02-28T14:36:58;5.00;96.80
74513;DHT22;62992;52.052;8.550;2023-02-28T14:39:46;5.10;96.70
74513;DHT22;62992;52.052;8.550;2023-02-28T14:42:36;5.10;97.00
74513;DHT22;62992;52.052;8.550;2023-02-28T14:45:33;5.00;96.80
74513;DHT22;62992;52.052;8.550;2023-02-28T14:48:19;5.00;97.30
74513;DHT22;62992;52.052;8.550;2023-02-28T14:51:04;5.00;97.40
74513;DHT22;62992;52.052;8.550;2023-02-28T14:53:52;5.10;97.40
74513;DHT22;62992;52.052;8.550;2023-02-28T14:56:40;5.20;97.70
74513;DHT22;62992;52.052;8.550;2023-02-28T14:59:33;5.10;97.90
74513;DHT22;62992;52.052;8.550;2023-02-28T15:02:20;5.00;97.80
74513;DHT22;62992;52.052;8.550;2023-02-28T15:13:52;4.90;98.30
74513;DHT22;62992;52.052;8.550;2023-02-28T15:16:41;4.90;98.70
74513;DHT22;62992;52.052;8.550;2023-02-28T15:19:29;5.00;98.90
74513;DHT22;62992;52.052;8.550;2023-02-28T15:22:17;4.90;98.90
74513;DHT22;62992;52.052;8.550;2023-02-28T15:25:03;4.90;99.20
74513;DHT22;62992;52.052;8.550;2023-02-28T15:27:56;4.90;99.40
74513;DHT22;62992;52.052;8.550;2023-02-28T15:30:57;4.90;99.60
74513;DHT22;62992;52.052;8.550;2023-02-28T15:33:52;4.80;99.60
74513;DHT22;62992;52.052;8.550;2023-02-28T15:36:36;4.80;99.50
74513;DHT22;62992;52.052;8.550;2023-02-28T15:39:26;4.70;99.40
74513;DHT22;62992;52.052;8.550;2023-02-28T15:42:28;4.70;99.80
74513;DHT22;62992;52.052;8.550;2023-02-28T15:45:31;4.70;99.90
74513;DHT22;62992;52.052;8.550;2023-02-28T15:48:22;4.70;99.90
74513;DHT22;62992;52.052;8.550;2023-02-28T15:51:09;4.70;99.90
74513;DHT22;62992;52.052;8.550;2023-02-28T15:54:01;4.60;99.90
74513;DHT22;62992;52.052;8.550;2023-02-28T15:56:49;4.60;99.90
74513;DHT22;62992;52.052;8.550;2023-02-28T15:59:36;4.50;99.70
74513;DHT22;62992;52.052;8.550;2023-02-28T16:02:32;4.50;99.00
74513;DHT22;62992;52.052;8.550;2023-02-28T16:05:28;4.40;99.50
74513;DHT22;62992;52.052;8.550;2023-02-28T16:08:16;4.40;99.90
74513;DHT22;62992;52.052;8.550;2023-02-28T16:11:00;4.40;99.80
74513;DHT22;62992;52.052;8.550;2023-02-28T16:13:44;4.30;99.60
74513;DHT22;62992;52.052;8.550;2023-02-28T16:16:28;4.30;99.90
74513;DHT22;62992;52.052;8.550;2023-02-28T16:19:13;4.20;99.90
74513;DHT22;62992;52.052;8.550;2023-02-28T16:21:57;4.20;99.90
74513;DHT22;62992;52.052;8.550;2023-02-28T16:24:41;4.10;99.90
74513;DHT22;62992;52.052;8.550;2023-02-28T16:27:36;4.10;99.90
74513;DHT22;62992;52.052;8.550;2023-02-28T16:30:23;4.10;99.90
74513;DHT22;62992;52.052;8.550;2023-02-28T16:33:08;4.00;99.90
74513;DHT22;62992;52.052;8.550;2023-02-28T16:35:53;4.00;99.90
74513;DHT22;62992;52.052;8.550;2023-02-28T16:38:37;3.90;99.90
74513;DHT22;62992;52.052;8.550;2023-02-28T16:41:23;3.80;99.90
74513;DHT22;62992;52.052;8.550;2023-02-28T16:44:30;3.80;99.90
74513;DHT22;62992;52.052;8.550;2023-02-28T16:47:15;3.70;99.90
74513;DHT22;62992;52.052;8.550;2023-02-28T16:49:59;3.60;99.90
74513;DHT22;62992;52.052;8.550;2023-02-28T16:52:43;3.40;99.90
74513;DHT22;62992;52.052;8.550;2023-02-28T16:55:28;3.50;99.90
74513;DHT22;62992;52.052;8.550;2023-02-28T16:58:16;3.60;99.90
74513;DHT22;62992;52.052;8.550;2023-02-28T17:01:02;3.40;99.90
74513;DHT22;62992;52.052;8.550;2023-02-28T17:03:47;3.40;99.90
74513;DHT22;62992;52.052;8.550;2023-02-28T17:06:31;3.40;99.90
74513;DHT22;62992;52.052;8.550;2023-02-28T17:09:18;3.30;99.90
74513;DHT22;62992;52.052;8.550;2023-02-28T17:12:03;3.30;99.90
74513;DHT22;62992;52.052;8.550;2023-02-28T17:14:48;3.20;99.90
74513;DHT22;62992;52.052;8.550;2023-02-28T17:17:32;3.10;99.90
74513;DHT22;62992;52.052;8.550;2023-02-28T17:20:19;3.00;99.90
74513;DHT22;62992;52.052;8.550;2023-02-28T17:23:06;2.90;99.90
74513;DHT22;62992;52.052;8.550;2023-02-28T17:25:50;2.80;99.90
74513;DHT22;62992;52.052;8.550;2023-02-28T17:28:37;2.80;99.90
74513;DHT22;62992;52.052;8.550;2023-02-28T17:31:23;2.70;99.90
74513;DHT22;62992;52.052;8.550;2023-02-28T17:34:07;2.60;99.90
74513;DHT22;62992;52.052;8.550;2023-02-28T17:36:51;2.50;99.90
74513;DHT22;62992;52.052;8.550;2023-02-28T17:39:35;2.40;99.90
74513;DHT22;62992;52.052;8.550;2023-02-28T17:42:20;2.20;99.90
74513;DHT22;62992;52.052;8.550;2023-02-28T17:45:04;2.20;99.90
74513;DHT22;62992;52.052;8.550;2023-02-28T17:47:49;2.10;99.90
74513;DHT22;62992;52.052;8.550;2023-02-28T17:50:36;2.00;99.90
74513;DHT22;62992;52.052;8.550;2023-02-28T17:53:20;1.90;99.90
74513;DHT22;62992;52.052;8.550;2023-02-28T17:56:17;2.00;99.90
74513;DHT22;62992;52.052;8.550;2023-02-28T17:59:02;1.90;99.90
74513;DHT22;62992;52.052;8.550;2023-02-28T18:01:47;1.90;99.90
74513;DHT22;62992;52.052;8.550;2023-02-28T18:04:31;1.70;99.90
74513;DHT22;62992;52.052;8.550;2023-02-28T18:07:15;1.70;99.90
74513;DHT22;62992;52.052;8.550;2023-02-28T18:09:59;1.60;99.90
74513;DHT22;62992;52.052;8.550;2023-02-28T18:12:43;1.50;99.90
74513;DHT22;62992;52.052;8.550;2023-02-28T18:15:27;1.50;99.90
74513;DHT22;62992;52.052;8.550;2023-02-28T18:18:11;1.40;99.90
74513;DHT22;62992;52.052;8.550;2023-02-28T18:20:55;1.40;99.90
74513;DHT22;62992;52.052;8.550;2023-02-28T18:23:40;1.30;99.90
74513;DHT22;62992;52.052;8.550;2023-02-28T18:26:36;1.20;99.90
74513;DHT22;62992;52.052;8.550;2023-02-28T18:29:25;1.20;99.90
74513;DHT22;62992;52.052;8.550;2023-02-28T18:32:10;1.10;99.90
74513;DHT22;62992;52.052;8.550;2023-02-28T18:34:54;1.10;99.90
74513;DHT22;62992;52.052;8.550;2023-02-28T18:37:38;1.10;99.90
74513;DHT22;62992;52.052;8.550;2023-02-28T18:40:22;1.00;99.90
74513;DHT22;62992;52.052;8.550;2023-02-28T18:43:07;1.00;99.90
74513;DHT22;62992;52.052;8.550;2023-02-28T18:45:51;1.00;99.90
74513;DHT22;62992;52.052;8.550;2023-02-28T18:48:36;1.00;99.90
74513;DHT22;62992;52.052;8.550;2023-02-28T18:51:23;0.90;99.90
74513;DHT22;62992;52.052;8.550;2023-02-28T18:54:07;0.90;99.90
74513;DHT22;62992;52.052;8.550;2023-02-28T18:56:51;0.90;99.90
74513;DHT22;62992;52.052;8.550;2023-02-28T18:59:36;0.80;99.90
74513;DHT22;62992;52.052;8.550;2023-02-28T19:02:20;0.80;99.90
74513;DHT22;62992;52.052;8.550;2023-02-28T19:05:04;0.70;99.90
74513;DHT22;62992;52.052;8.550;2023-02-28T19:07:49;0.70;99.90
74513;DHT22;62992;52.052;8.550;2023-02-28T19:10:34;0.70;99.90
74513;DHT22;62992;52.052;8.550;2023-02-28T19:13:20;0.60;99.90
74513;DHT22;62992;52.052;8.550;2023-02-28T19:16:07;0.60;99.90
74513;DHT22;62992;52.052;8.550;2023-02-28T19:18:52;0.50;99.90
74513;DHT22;62992;52.052;8.550;2023-02-28T19:21:37;0.50;99.90
74513;DHT22;62992;52.052;8.550;2023-02-28T19:24:21;0.50;99.90
74513;DHT22;62992;52.052;8.550;2023-02-28T19:27:05;0.50;99.90
74513;DHT22;62992;52.052;8.550;2023-02-28T19:29:50;0.50;99.90
74513;DHT22;62992;52.052;8.550;2023-02-28T19:32:34;0.50;99.90
74513;DHT22;62992;52.052;8.550;2023-02-28T19:35:19;0.40;99.90
74513;DHT22;62992;52.052;8.550;2023-02-28T19:38:03;0.40;99.90
74513;DHT22;62992;52.052;8.550;2023-02-28T19:40:47;0.40;99.90
74513;DHT22;62992;52.052;8.550;2023-02-28T19:43:31;0.30;99.90
74513;DHT22;62992;52.052;8.550;2023-02-28T19:46:15;0.30;99.90
74513;DHT22;62992;52.052;8.550;2023-02-28T19:49:01;0.30;99.90
74513;DHT22;62992;52.052;8.550;2023-02-28T19:51:45;0.30;99.90
74513;DHT22;62992;52.052;8.550;2023-02-28T19:54:29;0.30;99.90
74513;DHT22;62992;52.052;8.550;2023-02-28T19:57:14;0.20;99.90
74513;DHT22;62992;52.052;8.550;2023-02-28T19:59:58;0.20;99.90
74513;DHT22;62992;52.052;8.550;2023-02-28T20:02:43;0.20;99.90
74513;DHT22;62992;52.052;8.550;2023-02-28T20:05:27;0.20;99.90